• Join FlightAware (Why Join?)
  • Login
  • US Flag 
05:57AM EDT


 

Airport Tracker/Info


-or-


 

Live Flight TrackerFlight Track Log ✈ QTR722 ✈ 19-05-2013 ✈ OTBD - OERK / RUH

Flight Track Log - Related Links

Times and Time Zones

All times are in EDT time to prevent confusion due to time zone crossing. See the QTR722 flight status page for this flight to view local times or setup timezone preferences in your user account.

Time Position Orientation Groundspeed Altitude Reporting Facility
EDT Latitude Longitude Course Direction KTS MPH feet Rate Location/Type
04:26PM 25.2830 51.5600 355° North 132 152 1,800  Level FlightAware
04:27PM 25.3420 51.5540 355° North 224 258 2,800 1,260 Climbing FlightAware
04:28PM 25.3680 51.5520 356° North 245 282 3,800 2,820 Climbing FlightAware
04:28PM 25.3860 51.5510 357° North 245 282 4,700 2,820 Climbing FlightAware
04:28PM 25.4150 51.5130 310° West 257 296 6,400 2,640 Climbing FlightAware
04:30PM 25.3990 51.4100 260° West 278 320 9,800 2,340 Climbing FlightAware
04:30PM 25.3890 51.3430 261° West 312 359 11,100 1,500 Climbing FlightAware
04:31PM 25.3830 51.2740 265° West 342 394 12,000 1,680 Climbing FlightAware
04:32PM 25.3800 51.2230 266° West 346 398 13,100 2,280 Climbing FlightAware
04:32PM 25.3770 51.1630 267° West 347 399 14,500 1,980 Climbing FlightAware
04:33PM 25.3730 51.0880 267° West 365 420 15,600 1,860 Climbing FlightAware
04:34PM 25.3680 51.0140 266° West 368 423 17,000 1,860 Climbing FlightAware
04:34PM 25.3630 50.9290 266° West 377 434 18,300 2,040 Climbing FlightAware
04:35PM 25.3580 50.8440 266° West 375 432 19,900 2,160 Climbing FlightAware
04:36PM 25.3540 50.7710 267° West 375 432 21,200 1,740 Climbing FlightAware
04:36PM 25.3500 50.7040 266° West 378 435 22,100 1,440 Climbing FlightAware
04:37PM 25.3440 50.6090 266° West 385 443 23,300 840 Climbing FlightAware
04:38PM 25.3400 50.5250 267° West 387 445 23,500 120 Climbing FlightAware
04:38PM 25.3370 50.4580 267° West 387 445 23,500  Level FlightAware
04:39PM 25.3340 50.3900 267° West 387 445 23,500  Level FlightAware
04:40PM 25.3310 50.3230 267° West 387 445 23,500 780 Level FlightAware
04:42PM 25.3137 50.1336 264° West  Level Estimated
04:43PM 25.3036 50.0233 264° West  Level Estimated
04:44PM 25.2933 49.9131 264° West  Level Estimated
04:45PM 25.2830 49.8028 264° West  Level Estimated
04:46PM 25.2726 49.6926 264° West  Level Estimated
04:47PM 25.2621 49.5824 264° West  Level Estimated
04:47PM 25.2680 49.4330 264° West 387 445 30,000  Level FlightAware
04:48PM 25.2630 49.3530 266° West 387 445 30,000  Level FlightAware
04:48PM 25.2570 49.2740 265° West 387 445 30,000  Level FlightAware
04:49PM 25.2510 49.1870 266° West 388 447 30,000  Level FlightAware
04:50PM 25.2450 49.1070 265° West 390 449 30,000  Level FlightAware
04:50PM 25.2380 49.0270 264° West 390 449 30,000  Level FlightAware
04:51PM 25.2290 48.9350 264° West 391 450 30,000  Level FlightAware
04:52PM 25.2220 48.8570 264° West 391 450 30,000  Level FlightAware
04:52PM 25.2130 48.7670 264° West 390 449 30,000  Level FlightAware
04:53PM 25.2050 48.6780 264° West 389 448 30,000  Level FlightAware
04:54PM 25.1970 48.5990 264° West 390 449 30,000  Level FlightAware
04:55PM 25.1890 48.5100 264° West 391 450 30,000  Level FlightAware
04:55PM 25.1810 48.4310 264° West 391 450 30,000  Level FlightAware
04:56PM 25.1730 48.3510 264° West 391 450 30,000  Level FlightAware
04:57PM 25.1640 48.2620 264° West 392 451 30,000 -240 Level FlightAware
04:57PM 25.1570 48.1840 264° West 392 451 29,700 -1,740 Descending FlightAware
04:58PM 25.1480 48.0920 264° West 398 458 27,600 -2,580 Descending FlightAware
04:59PM 25.1400 48.0120 264° West 392 451 26,100 -2,220 Descending FlightAware
04:59PM 25.1320 47.9330 264° West 384 442 24,700 -2,100 Descending FlightAware
05:00PM 25.1230 47.8470 263° West 375 432 23,200 -1,980 Descending FlightAware
05:01PM 25.1090 47.7720 258° West 371 427 21,900 -1,920 Descending FlightAware
05:02PM 25.0910 47.6900 256° West 366 421 20,500 -1,920 Descending FlightAware
05:02PM 25.0760 47.6190 257° West 358 412 19,200 -1,920 Descending FlightAware
05:03PM 25.0640 47.5650 256° West 352 405 18,300 -1,800 Descending FlightAware
05:03PM 25.0490 47.4970 256° West 343 395 17,100 -1,800 Descending FlightAware
05:04PM 25.0400 47.4550 257° West 338 389 16,400 -1,740 Descending FlightAware
05:05PM 25.0240 47.3810 257° West 326 375 15,100 -1,740 Descending FlightAware
05:05PM 25.0090 47.3160 256° West 318 366 14,000 -1,560 Descending FlightAware
05:06PM 24.9940 47.2460 257° West 311 358 12,900 -1,320 Descending FlightAware
05:07PM 24.9810 47.1850 257° West 296 341 12,200 -900 Descending FlightAware
05:07PM 24.9680 47.1290 256° West 276 318 11,700 -1,080 Descending FlightAware
05:08PM 24.9490 47.0920 240° Southwest 288 331 11,000 -1,680 Descending FlightAware
05:09PM 24.9110 47.0490 226° Southwest 284 327 9,800 -1,800 Descending FlightAware
05:09PM 24.8840 47.0170 227° Southwest 272 313 8,900 -1,920 Descending FlightAware
05:10PM 24.8580 46.9860 227° Southwest 267 307 7,900 -2,340 Descending FlightAware
05:10PM 24.8360 46.9610 226° Southwest 271 312 6,800 -2,100 Descending FlightAware
05:10PM 24.8100 46.9310 226° Southwest 262 302 6,000 -1,380 Descending FlightAware
05:11PM 24.7980 46.9170 227° Southwest 256 295 5,800 -780 Descending FlightAware
05:11PM 24.7780 46.8940 226° Southwest 241 277 5,500 -780 Descending FlightAware
05:12PM 24.7590 46.8660 233° Southwest 231 266 5,100 -600 Descending FlightAware
05:12PM 24.7670 46.8400 289° West 221 254 5,000  Descending FlightAware
05:12PM 24.7780 46.8290 318° Northwest 206 237 5,100  Climbing FlightAware
05:13PM 24.8000 46.8140 328° Northwest 171 197 5,000 -360 Descending FlightAware
05:13PM 24.8140 46.8050 330° Northwest 171 197 4,800 -720 Descending FlightAware
05:14PM 24.8340 46.7920 329° Northwest 165 190 4,400 -900 Descending FlightAware
05:14PM 24.8500 46.7820 330° Northwest 153 176 4,000 -780 Descending FlightAware
05:15PM 24.8700 46.7700 331° Northwest 151 174 3,700 -780 Descending FlightAware
05:15PM 24.8840 46.7610 330° Northwest 149 171 3,300 -900 Descending FlightAware
05:15PM 24.8950 46.7540 330° Northwest 154 177 3,100 -780 Descending FlightAware
05:16PM 24.9100 46.7450 331° Northwest 152 175 2,800 -720 Descending FlightAware
05:16PM 24.9260 46.7340 328° Northwest 152 175 2,500 -840 Descending FlightAware
05:17PM 24.9470 46.7210 331° Northwest 148 170 2,000 -900 Descending FlightAware